Ridgeville Corners, Ohio
Current Conditions -  °F | °C
As of 12:53 PM on Friday 21 Nov 2014 (Local Time) from KDFI Reporting Station
Clear Clear  
Wind Chill: 22°   Ceiling: Unl
Heat Index: 27°   Visibility: 10mi
Dew Point: 12°   Wind: 5mph
Humidity: 53%   Direction: NA
Pressure: 30.49"   Gusts: NA
Location:  41.44°N, 84.26°W
Report Text: KDFI 211753Z AUTO VRB04KT 10SM CLR M03/M11 A3049 RMK AO2 SLP338 T10281111 11028 21128 50004
Loading
Personal Weather Stations






























Interactive Weather Map New forecast layout! Learn more

10-Day Weather Forecast

Advertisements
Track Severe Weather on mobile